Racecast

Katie Bules

Temperance Bedford (MI) · 12 · SECMI D1MONROE · Compare head to head

Athlete rating 123.3 2014 XC season
Best race 138.4 XC
Races 43
Seasons 5 2011 — 2015

RankedNation #15593·MI #2000·MI D1 #1196·SEC #109·Team #29 ?

Cross Country

2014 XC 118.7

Temperance Bedford (MI) · Grade 12

Date Meet Event Result Place Rating Difficulty PR/SR Flags
2014-09-23 Huron Meadows Metropark OFFICIAL 5000m 22:42.8 47th · 8th on team 121.2 +0.052 ★CR CSR RSR
2014-09-20 Ella Sharp Park OFFICIAL 5000m 22:49.3 126th · 8th on team 117.9 +0.038 CSR RSR
2014-09-06 Hedges Boyer Park 5000m 21:10 6th · 1st on team 117.2 -0.036 ★CR SR CSR RSR

2013 XC 130.7

Temperance Bedford (MI) · Grade 11

Date Meet Event Result Place Rating Difficulty PR/SR Flags
2013-10-26 Lake Erie Metro Park OFFICIAL 5000m 20:01.5 17th · 3rd on team 137.2 +0.055 SR CSR RSR
2013-10-17 Hudson Mills Metropark - OFFICIAL 5000m 20:02.3 10th · 1st on team 132.9 +0.036 ★CR SR CSR
2013-10-05 Portage West MS 5000m 20:34 79th · 3rd on team 131.8 +0.038 CSR
2013-09-21 Ella Sharp Park OFFICIAL 5000m 20:22.3 35th · 2nd on team 131.3 +0.038 ★CR CSR
2013-09-13 Forest Akers East Golf Course 5000m 20:06 36th · 1st on team 134.8 +0.061 ★CR SR CSR RSR
2013-09-10 Pioneer HS 5000m 25:20.8 80th · 8th on team +0.067 ★CR CSR
2013-09-07 Hedges Boyer Park 5000m 21:44.4 117th · 4th on team 116.3 -0.036 CR SR CSR RSR

2012 XC 131.1

Temperance Bedford (MI) · Grade 10

Date Meet Event Result Place Rating Difficulty PR/SR Flags
2012-10-27 Lake Erie Metro Park OFFICIAL 5000m 19:46.4 11th · 2nd on team 138.4 +0.055 ★PR ★CR ★R SR CSR RSR
2012-10-18 Hudson Mills Metropark - OFFICIAL 5000m 20:13.7 12th · 2nd on team 133.8 +0.036 PR CR R SR CSR RSR
2012-10-06 Portage West MS 5000m 20:28.9 109th · 3rd on team 130.2 +0.038 PR ★CR R SR CSR RSR
2012-09-29 Pearson's Metro Park 5000m 20:32.5 2nd · 2nd on team 123.2 -0.022 PR ★CR SR CSR
2012-08-25 Island Lake Recreation Area OFFICIAL 5000m 21:26 10th · 2nd on team 130.1 +0.069 PR ★CR R SR CSR RSR

2011 XC 116.4

Temperance Bedford (MI) · Grade 9

Date Meet Event Result Place Rating Difficulty PR/SR Flags
2011-10-20 Hudson Mills Metropark - OFFICIAL 5000m 23:02 58th · 10th on team 117.9 +0.036 CR CSR
2011-10-08 Portage West MS 5000m 22:18.4 45th · 3rd on team 122.5 +0.038 CR CSR
2011-10-01 Pearson's Metro Park 5000m 23:11 9th · 9th on team 109.5 -0.022 CR CSR
2011-09-27 Mill Pond Park 5000m 23:42.2 22nd · 5th on team 118.7 +0.081 ★CR CSR
2011-09-24 Ella Sharp Park OFFICIAL 5000m 23:54.7 150th · 15th on team 112.8 +0.038 CR CSR
2011-09-16 Forest Akers East Golf Course 5000m 21:51 45th · 3rd on team 124.3 +0.061 PR CR R SR CSR RSR
2011-09-13 Willow Metropark OFFICIAL 5000m 23:23.7 58th · 8th on team 117.7 +0.048 ★CR R CSR RSR
2011-09-10 Hedges Boyer Park 5000m 23:10.8 96th · 3rd on team 107.6 -0.036 PR CR R SR CSR RSR

Track & Field

2015 TF 114.8

Temperance Bedford (MI) · Grade 12

Date Meet Event Result Place Rating Difficulty PR/SR Flags
2015-05-07 SEC: Red Division Finals 400m 1:05.47 11th · 1st on team -0.032 SR
2015-04-28 SEC: Skyline @ Bedford 200m 30.14 7th · 6th on team -0.033 ★PR SR
2015-04-28 SEC: Skyline @ Bedford 400m 1:05.54 4th · 2nd on team -0.033 SR
2015-04-25 Whitmore Lake HS Invite 800m 2:39.53 4th · 2nd on team 115.3 -0.029
2015-04-21 SEC: Bedford @ Pioneer 1600m 6:12 8th · 4th on team 112.9 -0.028 SR
2015-04-16 Springfield Invitational 800m 2:37.96 2nd · 2nd on team 116.3 -0.029 SR RSR

2014 TF 116.8

Temperance Bedford (MI) · Grade 11

Date Meet Event Result Place Rating Difficulty PR/SR Flags
2014-05-06 Saline Quad 400m 1:06.49 10th · 4th on team -0.042
2014-05-06 Saline Quad 800m 2:41.93 13th · 5th on team 111.8 -0.042
2014-04-17 Springfield Invitational 800m 2:30.3 2nd · 2nd on team 121.9 -0.029 SR RSR
2014-04-11 Whitmer Golden W Invitational 400m 1:03.08 3rd · 1st on team -0.040 ★PR SR

2013 TF 127.0

Temperance Bedford (MI) · Grade 10

Date Meet Event Result Place Rating Difficulty PR/SR Flags
2013-05-23 SEC Championship-GIRLS 800m 2:25.61 4th · 1st on team 126.0 -0.033
2013-05-23 SEC Championship-GIRLS 800m 2:25.61 4th · 1st on team 126.0 -0.033
2013-05-10 Siena Heights Invitational 1600m 5:20.76 4th · 1st on team 127.7 -0.037 ★PR SR
2013-05-03 Golden Triangle Invitational 800m 2:21.55 6th · 1st on team 128.1 -0.038 ★PR SR RSR

2012 TF 122.7

Temperance Bedford (MI) · Grade 9

Date Meet Event Result Place Rating Difficulty PR/SR Flags
2012-05-25 Beck Freshman Invite 800m 2:30.2 1st · 1st on team 123.2 -0.022
2012-05-25 Beck Freshman Invite 1600m 5:36 1st · 1st on team 124.3 -0.022
2012-05-23 SEC Girls Championships 800m 2:24.78 5th · 2nd on team 125.3 -0.038 PR R SR RSR
2012-05-18 MHSAA Region 3-1 1600m 5:39.1 14th · 3rd on team 120.0 -0.042
2012-05-11 Siena Heights Invitational 800m 2:30.36 14th · 2nd on team 120.2 -0.037 PR SR
2012-05-04 Golden Triangle Invitational 1600m 5:29.99 16th · 2nd on team 123.1 -0.038 PR SR RSR